sensor_id;sensor_type;location;lat;lon;timestamp;pressure;altitude;pressure_sealevel;temperature;humidity
63115;BME280;49208;50.874;6.466;2024-03-23T07:01:02;99877.81;;;11.85;79.53
63115;BME280;49208;50.874;6.466;2024-03-23T07:03:27;99874.97;;;12.42;76.44
63115;BME280;49208;50.874;6.466;2024-03-23T07:05:57;99880.97;;;12.96;74.31
63115;BME280;49208;50.874;6.466;2024-03-23T07:08:23;99888.00;;;13.62;70.65
63115;BME280;49208;50.874;6.466;2024-03-23T07:10:48;99882.78;;;13.91;68.73
63115;BME280;49208;50.874;6.466;2024-03-23T07:13:14;99878.72;;;14.30;68.58
63115;BME280;49208;50.874;6.466;2024-03-23T07:15:39;99884.44;;;14.24;67.46
63115;BME280;49208;50.874;6.466;2024-03-23T07:18:05;99914.75;;;13.46;68.17
63115;BME280;49208;50.874;6.466;2024-03-23T07:20:30;99926.34;;;11.93;71.65
63115;BME280;49208;50.874;6.466;2024-03-23T07:22:56;99925.28;;;10.00;72.34
63115;BME280;49208;50.874;6.466;2024-03-23T07:25:22;99929.22;;;8.76;79.20
63115;BME280;49208;50.874;6.466;2024-03-23T07:27:48;99914.44;;;7.92;83.58
63115;BME280;49208;50.874;6.466;2024-03-23T07:30:14;99905.75;;;7.32;84.66
63115;BME280;49208;50.874;6.466;2024-03-23T07:32:39;99892.84;;;6.93;86.67
63115;BME280;49208;50.874;6.466;2024-03-23T07:35:05;99891.25;;;6.56;86.03
63115;BME280;49208;50.874;6.466;2024-03-23T07:37:30;99890.94;;;6.34;89.45
63115;BME280;49208;50.874;6.466;2024-03-23T07:39:56;99899.25;;;6.20;88.31
63115;BME280;49208;50.874;6.466;2024-03-23T07:42:22;99894.34;;;6.06;92.08
63115;BME280;49208;50.874;6.466;2024-03-23T07:44:48;99903.28;;;6.01;94.35
63115;BME280;49208;50.874;6.466;2024-03-23T07:47:14;99896.28;;;6.00;93.60
63115;BME280;49208;50.874;6.466;2024-03-23T07:49:39;99899.66;;;6.05;93.55
63115;BME280;49208;50.874;6.466;2024-03-23T07:52:05;99903.81;;;6.79;96.23
63115;BME280;49208;50.874;6.466;2024-03-23T07:54:31;99903.56;;;8.77;91.17
63115;BME280;49208;50.874;6.466;2024-03-23T07:56:56;99897.00;;;11.00;78.94
63115;BME280;49208;50.874;6.466;2024-03-23T07:59:21;99888.44;;;12.89;69.83
63115;BME280;49208;50.874;6.466;2024-03-23T08:01:47;99886.66;;;14.46;68.38
63115;BME280;49208;50.874;6.466;2024-03-23T08:04:12;99882.22;;;15.60;60.49
63115;BME280;49208;50.874;6.466;2024-03-23T08:06:38;99880.13;;;16.70;55.43
63115;BME280;49208;50.874;6.466;2024-03-23T08:09:03;99884.84;;;17.18;53.71
63115;BME280;49208;50.874;6.466;2024-03-23T08:11:30;99877.75;;;17.91;52.59
63115;BME280;49208;50.874;6.466;2024-03-23T08:13:56;99882.78;;;18.31;50.91
63115;BME280;49208;50.874;6.466;2024-03-23T08:16:22;99892.28;;;18.59;50.73
63115;BME280;49208;50.874;6.466;2024-03-23T08:18:48;99889.38;;;17.91;48.99
63115;BME280;49208;50.874;6.466;2024-03-23T08:21:13;99893.88;;;16.66;53.52
63115;BME280;49208;50.874;6.466;2024-03-23T08:23:39;99892.38;;;15.27;56.14
63115;BME280;49208;50.874;6.466;2024-03-23T08:26:11;99897.78;;;14.09;61.40
63115;BME280;49208;50.874;6.466;2024-03-23T08:28:38;99902.84;;;13.36;63.02
63115;BME280;49208;50.874;6.466;2024-03-23T08:31:07;99900.41;;;12.82;65.83
63115;BME280;49208;50.874;6.466;2024-03-23T08:33:33;99897.38;;;12.55;74.22
63115;BME280;49208;50.874;6.466;2024-03-23T08:36:00;99900.38;;;13.15;70.77
63115;BME280;49208;50.874;6.466;2024-03-23T08:38:26;99898.06;;;13.25;68.19
63115;BME280;49208;50.874;6.466;2024-03-23T08:40:59;99885.16;;;13.33;66.83
63115;BME280;49208;50.874;6.466;2024-03-23T08:43:25;99895.09;;;13.31;66.01
63115;BME280;49208;50.874;6.466;2024-03-23T08:45:51;99896.06;;;12.64;67.07
63115;BME280;49208;50.874;6.466;2024-03-23T08:48:17;99889.31;;;11.68;69.98
63115;BME280;49208;50.874;6.466;2024-03-23T08:50:43;99889.44;;;10.90;73.35
63115;BME280;49208;50.874;6.466;2024-03-23T08:53:08;99901.91;;;10.30;77.82
63115;BME280;49208;50.874;6.466;2024-03-23T08:55:34;99909.72;;;10.54;80.75
63115;BME280;49208;50.874;6.466;2024-03-23T08:57:59;99904.75;;;11.25;78.70
63115;BME280;49208;50.874;6.466;2024-03-23T09:00:25;99905.09;;;11.36;74.94
63115;BME280;49208;50.874;6.466;2024-03-23T09:02:51;99903.41;;;10.96;74.16
63115;BME280;49208;50.874;6.466;2024-03-23T09:05:16;99911.00;;;10.45;77.70
63115;BME280;49208;50.874;6.466;2024-03-23T09:07:41;99909.81;;;10.31;80.56
63115;BME280;49208;50.874;6.466;2024-03-23T09:10:07;99913.56;;;10.26;79.88
63115;BME280;49208;50.874;6.466;2024-03-23T09:12:33;99905.69;;;10.23;80.14
63115;BME280;49208;50.874;6.466;2024-03-23T09:14:58;99899.50;;;10.44;82.08
63115;BME280;49208;50.874;6.466;2024-03-23T09:17:24;99904.81;;;10.65;80.80
63115;BME280;49208;50.874;6.466;2024-03-23T09:19:49;99898.41;;;11.08;83.11
63115;BME280;49208;50.874;6.466;2024-03-23T09:22:14;99902.06;;;11.25;76.55
63115;BME280;49208;50.874;6.466;2024-03-23T09:24:40;99892.13;;;11.09;74.17
63115;BME280;49208;50.874;6.466;2024-03-23T09:27:05;99890.13;;;11.33;76.04
63115;BME280;49208;50.874;6.466;2024-03-23T09:29:31;99878.47;;;11.53;78.22
63115;BME280;49208;50.874;6.466;2024-03-23T09:31:56;99877.75;;;11.69;76.84
63115;BME280;49208;50.874;6.466;2024-03-23T09:34:22;99882.22;;;11.86;75.11
63115;BME280;49208;50.874;6.466;2024-03-23T09:36:51;99869.03;;;11.65;74.65
63115;BME280;49208;50.874;6.466;2024-03-23T09:39:18;99875.72;;;11.38;71.94
63115;BME280;49208;50.874;6.466;2024-03-23T09:41:44;99876.72;;;10.97;72.49
63115;BME280;49208;50.874;6.466;2024-03-23T09:44:09;99879.38;;;10.58;72.63
63115;BME280;49208;50.874;6.466;2024-03-23T09:46:35;99877.25;;;10.25;73.79
63115;BME280;49208;50.874;6.466;2024-03-23T09:49:02;99883.66;;;9.78;73.80
63115;BME280;49208;50.874;6.466;2024-03-23T09:51:30;99877.63;;;9.53;77.78
63115;BME280;49208;50.874;6.466;2024-03-23T09:53:56;99893.03;;;9.21;79.18
63115;BME280;49208;50.874;6.466;2024-03-23T09:56:22;99898.19;;;9.02;82.53
63115;BME280;49208;50.874;6.466;2024-03-23T09:58:48;99892.03;;;9.01;82.95
63115;BME280;49208;50.874;6.466;2024-03-23T10:01:14;99890.28;;;9.00;81.58
63115;BME280;49208;50.874;6.466;2024-03-23T10:03:46;99895.47;;;9.03;81.94
63115;BME280;49208;50.874;6.466;2024-03-23T10:06:11;99893.41;;;9.12;82.27
63115;BME280;49208;50.874;6.466;2024-03-23T10:08:37;99894.03;;;9.18;81.72
63115;BME280;49208;50.874;6.466;2024-03-23T10:11:13;99893.84;;;9.23;80.97
63115;BME280;49208;50.874;6.466;2024-03-23T10:13:44;99903.78;;;9.18;80.35
63115;BME280;49208;50.874;6.466;2024-03-23T10:16:11;99891.50;;;9.37;81.25
63115;BME280;49208;50.874;6.466;2024-03-23T10:18:37;99903.75;;;9.63;81.23
63115;BME280;49208;50.874;6.466;2024-03-23T10:23:35;99885.75;;;10.12;79.59
63115;BME280;49208;50.874;6.466;2024-03-23T10:29:01;99884.41;;;10.84;74.96
63115;BME280;49208;50.874;6.466;2024-03-23T10:31:27;99881.47;;;11.09;73.38
63115;BME280;49208;50.874;6.466;2024-03-23T10:33:53;99873.53;;;11.46;75.30
63115;BME280;49208;50.874;6.466;2024-03-23T10:36:20;99868.16;;;11.65;72.97
63115;BME280;49208;50.874;6.466;2024-03-23T10:38:46;99869.56;;;11.72;71.07
63115;BME280;49208;50.874;6.466;2024-03-23T10:41:12;99871.75;;;11.64;71.52
63115;BME280;49208;50.874;6.466;2024-03-23T10:43:38;99852.47;;;11.59;68.99
63115;BME280;49208;50.874;6.466;2024-03-23T10:46:04;99866.91;;;11.36;68.66
63115;BME280;49208;50.874;6.466;2024-03-23T10:48:31;99862.13;;;11.25;71.57
63115;BME280;49208;50.874;6.466;2024-03-23T10:50:56;99865.47;;;11.28;71.34
63115;BME280;49208;50.874;6.466;2024-03-23T10:53:25;99863.31;;;11.18;70.94
63115;BME280;49208;50.874;6.466;2024-03-23T10:55:51;99876.13;;;10.90;69.92
63115;BME280;49208;50.874;6.466;2024-03-23T10:58:20;99864.88;;;10.65;74.32
63115;BME280;49208;50.874;6.466;2024-03-23T11:00:47;99866.88;;;10.60;73.35
63115;BME280;49208;50.874;6.466;2024-03-23T11:05:56;99862.97;;;10.87;71.03
63115;BME280;49208;50.874;6.466;2024-03-23T11:08:40;99868.47;;;10.64;69.37
63115;BME280;49208;50.874;6.466;2024-03-23T11:11:19;99863.97;;;10.45;71.33
63115;BME280;49208;50.874;6.466;2024-03-23T11:13:51;99870.91;;;10.68;73.27
63115;BME280;49208;50.874;6.466;2024-03-23T11:18:46;99846.69;;;11.31;69.74
63115;BME280;49208;50.874;6.466;2024-03-23T11:24:16;99855.91;;;11.97;59.76
63115;BME280;49208;50.874;6.466;2024-03-23T11:26:41;99863.56;;;11.86;61.59
63115;BME280;49208;50.874;6.466;2024-03-23T11:29:14;99856.78;;;11.98;60.96
63115;BME280;49208;50.874;6.466;2024-03-23T11:31:51;99859.63;;;12.12;63.34
63115;BME280;49208;50.874;6.466;2024-03-23T11:34:16;99863.75;;;12.18;63.15
63115;BME280;49208;50.874;6.466;2024-03-23T11:36:43;99858.09;;;12.24;62.12
63115;BME280;49208;50.874;6.466;2024-03-23T11:39:16;99852.50;;;12.46;63.43
63115;BME280;49208;50.874;6.466;2024-03-23T11:41:51;99852.84;;;12.40;59.65
63115;BME280;49208;50.874;6.466;2024-03-23T11:44:21;99848.91;;;12.29;60.51
63115;BME280;49208;50.874;6.466;2024-03-23T11:46:50;99855.50;;;12.05;59.78
63115;BME280;49208;50.874;6.466;2024-03-23T11:49:24;99848.94;;;11.58;64.43
63115;BME280;49208;50.874;6.466;2024-03-23T11:51:51;99844.38;;;11.24;67.69
63115;BME280;49208;50.874;6.466;2024-03-23T11:54:20;99853.59;;;10.98;69.08
63115;BME280;49208;50.874;6.466;2024-03-23T11:56:59;99843.91;;;10.78;67.56
63115;BME280;49208;50.874;6.466;2024-03-23T11:59:37;99847.91;;;10.86;64.83
63115;BME280;49208;50.874;6.466;2024-03-23T12:02:13;99848.88;;;11.04;64.24
63115;BME280;49208;50.874;6.466;2024-03-23T12:04:41;99889.38;;;11.30;66.87
63115;BME280;49208;50.874;6.466;2024-03-23T12:07:18;99900.91;;;10.32;65.68
63115;BME280;49208;50.874;6.466;2024-03-23T12:09:44;99892.38;;;9.38;69.08
63115;BME280;49208;50.874;6.466;2024-03-23T12:12:15;99903.94;;;8.66;73.26
63115;BME280;49208;50.874;6.466;2024-03-23T12:14:45;99903.94;;;8.16;76.54
63115;BME280;49208;50.874;6.466;2024-03-23T12:17:11;99887.72;;;7.72;76.30
63115;BME280;49208;50.874;6.466;2024-03-23T12:19:38;99872.41;;;7.53;81.81
63115;BME280;49208;50.874;6.466;2024-03-23T12:22:04;99871.75;;;7.75;79.67
63115;BME280;49208;50.874;6.466;2024-03-23T12:24:31;99865.09;;;7.88;77.93
63115;BME280;49208;50.874;6.466;2024-03-23T12:27:03;99872.84;;;7.94;77.52
63115;BME280;49208;50.874;6.466;2024-03-23T12:29:33;99871.69;;;7.76;76.65
63115;BME280;49208;50.874;6.466;2024-03-23T12:32:00;99880.72;;;7.71;80.23
63115;BME280;49208;50.874;6.466;2024-03-23T12:34:26;99867.13;;;7.53;84.03
63115;BME280;49208;50.874;6.466;2024-03-23T12:36:51;99864.97;;;7.38;83.60
63115;BME280;49208;50.874;6.466;2024-03-23T12:39:16;99864.97;;;7.38;86.77
63115;BME280;49208;50.874;6.466;2024-03-23T12:41:42;99860.53;;;7.38;85.82
63115;BME280;49208;50.874;6.466;2024-03-23T12:44:07;99851.22;;;7.53;87.15
63115;BME280;49208;50.874;6.466;2024-03-23T12:46:36;99841.44;;;8.08;89.09
63115;BME280;49208;50.874;6.466;2024-03-23T12:49:02;99836.59;;;8.70;86.56
63115;BME280;49208;50.874;6.466;2024-03-23T12:51:28;99842.38;;;9.25;81.72
63115;BME280;49208;50.874;6.466;2024-03-23T12:53:53;99842.28;;;9.50;77.72
63115;BME280;49208;50.874;6.466;2024-03-23T12:56:19;99839.56;;;9.30;73.56
63115;BME280;49208;50.874;6.466;2024-03-23T12:58:44;99853.63;;;9.10;74.50
63115;BME280;49208;50.874;6.466;2024-03-23T13:01:10;99851.69;;;8.92;76.73
63115;BME280;49208;50.874;6.466;2024-03-23T13:03:35;99845.19;;;8.77;77.52
63115;BME280;49208;50.874;6.466;2024-03-23T13:06:00;99845.03;;;8.80;78.15
63115;BME280;49208;50.874;6.466;2024-03-23T13:08:26;99836.97;;;8.83;79.54
63115;BME280;49208;50.874;6.466;2024-03-23T13:10:52;99826.22;;;9.09;80.25
63115;BME280;49208;50.874;6.466;2024-03-23T13:13:17;99819.59;;;9.42;77.41
63115;BME280;49208;50.874;6.466;2024-03-23T13:15:49;99814.03;;;9.48;74.30
63115;BME280;49208;50.874;6.466;2024-03-23T13:18:15;99818.13;;;9.35;75.99
63115;BME280;49208;50.874;6.466;2024-03-23T13:20:40;99825.66;;;9.23;75.14
63115;BME280;49208;50.874;6.466;2024-03-23T13:23:05;99816.59;;;9.29;78.34
63115;BME280;49208;50.874;6.466;2024-03-23T13:25:31;99823.41;;;9.36;76.63
63115;BME280;49208;50.874;6.466;2024-03-23T13:27:56;99846.22;;;9.18;72.68
63115;BME280;49208;50.874;6.466;2024-03-23T13:30:21;99878.63;;;8.57;72.72
63115;BME280;49208;50.874;6.466;2024-03-23T13:32:47;99849.00;;;8.19;77.93
63115;BME280;49208;50.874;6.466;2024-03-23T13:35:12;99852.25;;;7.76;80.53
63115;BME280;49208;50.874;6.466;2024-03-23T13:37:37;99850.34;;;7.26;82.78
63115;BME280;49208;50.874;6.466;2024-03-23T13:40:03;99837.84;;;7.03;85.71
63115;BME280;49208;50.874;6.466;2024-03-23T13:42:28;99829.00;;;7.04;90.81
63115;BME280;49208;50.874;6.466;2024-03-23T13:44:54;99820.28;;;7.28;93.93
63115;BME280;49208;50.874;6.466;2024-03-23T13:47:19;99813.88;;;7.62;93.66
63115;BME280;49208;50.874;6.466;2024-03-23T13:49:45;99810.38;;;7.87;92.04
63115;BME280;49208;50.874;6.466;2024-03-23T13:52:10;99805.47;;;8.01;90.89
63115;BME280;49208;50.874;6.466;2024-03-23T13:54:36;99806.50;;;7.97;89.18
63115;BME280;49208;50.874;6.466;2024-03-23T13:57:02;99812.75;;;7.95;89.50
63115;BME280;49208;50.874;6.466;2024-03-23T13:59:28;99813.94;;;7.86;90.50
63115;BME280;49208;50.874;6.466;2024-03-23T14:01:53;99816.41;;;7.90;91.22
63115;BME280;49208;50.874;6.466;2024-03-23T14:04:19;99815.94;;;8.04;93.09
63115;BME280;49208;50.874;6.466;2024-03-23T14:06:45;99823.03;;;8.29;90.91
63115;BME280;49208;50.874;6.466;2024-03-23T14:09:14;99821.22;;;8.55;89.45
63115;BME280;49208;50.874;6.466;2024-03-23T14:11:41;99822.28;;;8.74;89.25
63115;BME280;49208;50.874;6.466;2024-03-23T14:14:08;99815.84;;;8.80;87.88
63115;BME280;49208;50.874;6.466;2024-03-23T14:16:34;99818.59;;;8.78;87.54
63115;BME280;49208;50.874;6.466;2024-03-23T14:18:59;99815.19;;;8.75;87.42
63115;BME280;49208;50.874;6.466;2024-03-23T14:21:25;99818.91;;;8.69;85.65
63115;BME280;49208;50.874;6.466;2024-03-23T14:23:50;99823.03;;;8.54;85.93
63115;BME280;49208;50.874;6.466;2024-03-23T14:26:16;99850.09;;;8.39;86.22
63115;BME280;49208;50.874;6.466;2024-03-23T14:28:41;99886.91;;;7.96;83.45
63115;BME280;49208;50.874;6.466;2024-03-23T14:31:06;99865.25;;;7.00;79.50
63115;BME280;49208;50.874;6.466;2024-03-23T14:33:38;99874.31;;;6.31;82.59
63115;BME280;49208;50.874;6.466;2024-03-23T14:36:07;99860.63;;;5.80;85.00
63115;BME280;49208;50.874;6.466;2024-03-23T14:38:32;99849.16;;;5.45;86.94
63115;BME280;49208;50.874;6.466;2024-03-23T14:40:59;99861.31;;;5.17;90.74
63115;BME280;49208;50.874;6.466;2024-03-23T14:43:25;99863.66;;;4.90;93.21
63115;BME280;49208;50.874;6.466;2024-03-23T14:46:09;99860.19;;;4.88;95.12
63115;BME280;49208;50.874;6.466;2024-03-23T14:48:36;99861.75;;;4.95;98.96
63115;BME280;49208;50.874;6.466;2024-03-23T14:51:02;99854.41;;;5.10;99.73
63115;BME280;49208;50.874;6.466;2024-03-23T14:53:35;99847.06;;;5.24;100.00
63115;BME280;49208;50.874;6.466;2024-03-23T14:56:01;99842.44;;;5.34;100.00
63115;BME280;49208;50.874;6.466;2024-03-23T14:58:27;99844.88;;;5.41;100.00
63115;BME280;49208;50.874;6.466;2024-03-23T15:00:53;99839.59;;;5.41;100.00
63115;BME280;49208;50.874;6.466;2024-03-23T15:03:19;99844.09;;;5.38;100.00
63115;BME280;49208;50.874;6.466;2024-03-23T15:05:58;99815.69;;;5.47;100.00
63115;BME280;49208;50.874;6.466;2024-03-23T15:08:24;99806.13;;;5.78;100.00
63115;BME280;49208;50.874;6.466;2024-03-23T15:10:50;99797.41;;;6.09;100.00
63115;BME280;49208;50.874;6.466;2024-03-23T15:13:15;99790.47;;;6.36;100.00
63115;BME280;49208;50.874;6.466;2024-03-23T15:15:42;99793.44;;;6.55;100.00
63115;BME280;49208;50.874;6.466;2024-03-23T15:18:13;99795.63;;;6.70;100.00
63115;BME280;49208;50.874;6.466;2024-03-23T15:20:40;99798.22;;;6.72;98.31
63115;BME280;49208;50.874;6.466;2024-03-23T15:23:06;99786.94;;;6.66;98.59
63115;BME280;49208;50.874;6.466;2024-03-23T15:25:31;99786.22;;;6.60;99.96
63115;BME280;49208;50.874;6.466;2024-03-23T15:27:57;99795.44;;;6.46;97.90
63115;BME280;49208;50.874;6.466;2024-03-23T15:30:24;99793.28;;;6.30;100.00
63115;BME280;49208;50.874;6.466;2024-03-23T15:32:49;99799.81;;;6.16;99.05
63115;BME280;49208;50.874;6.466;2024-03-23T15:35:15;99811.50;;;6.07;99.56
63115;BME280;49208;50.874;6.466;2024-03-23T15:37:40;99825.88;;;5.97;100.00
63115;BME280;49208;50.874;6.466;2024-03-23T15:40:07;99843.66;;;5.89;100.00
63115;BME280;49208;50.874;6.466;2024-03-23T15:42:32;99828.63;;;5.58;99.50
63115;BME280;49208;50.874;6.466;2024-03-23T15:44:57;99839.84;;;5.31;99.77
63115;BME280;49208;50.874;6.466;2024-03-23T15:47:23;99817.44;;;5.13;100.00
63115;BME280;49208;50.874;6.466;2024-03-23T15:49:49;99804.41;;;5.05;100.00
63115;BME280;49208;50.874;6.466;2024-03-23T15:52:15;99804.59;;;4.96;100.00
63115;BME280;49208;50.874;6.466;2024-03-23T15:54:40;99809.19;;;4.88;100.00
63115;BME280;49208;50.874;6.466;2024-03-23T15:57:05;99801.25;;;4.89;100.00
63115;BME280;49208;50.874;6.466;2024-03-23T15:59:32;99786.97;;;4.98;100.00
63115;BME280;49208;50.874;6.466;2024-03-23T16:01:57;99783.19;;;5.10;100.00
63115;BME280;49208;50.874;6.466;2024-03-23T16:04:23;99779.19;;;5.29;100.00
63115;BME280;49208;50.874;6.466;2024-03-23T16:06:48;99783.25;;;5.44;100.00
63115;BME280;49208;50.874;6.466;2024-03-23T16:09:13;99776.81;;;5.54;100.00
63115;BME280;49208;50.874;6.466;2024-03-23T16:11:39;99770.47;;;5.61;100.00
63115;BME280;49208;50.874;6.466;2024-03-23T16:14:04;99776.59;;;5.62;100.00
63115;BME280;49208;50.874;6.466;2024-03-23T16:16:29;99772.91;;;5.69;100.00
63115;BME280;49208;50.874;6.466;2024-03-23T16:18:55;99772.63;;;5.80;100.00
63115;BME280;49208;50.874;6.466;2024-03-23T16:21:20;99772.28;;;5.92;100.00
63115;BME280;49208;50.874;6.466;2024-03-23T16:23:45;99772.13;;;6.00;100.00
63115;BME280;49208;50.874;6.466;2024-03-23T16:26:11;99762.31;;;6.03;100.00
63115;BME280;49208;50.874;6.466;2024-03-23T16:28:38;99768.56;;;6.01;100.00
63115;BME280;49208;50.874;6.466;2024-03-23T16:31:05;99765.94;;;5.99;100.00
63115;BME280;49208;50.874;6.466;2024-03-23T16:33:37;99763.31;;;5.99;100.00
63115;BME280;49208;50.874;6.466;2024-03-23T16:36:05;99761.59;;;5.98;100.00
63115;BME280;49208;50.874;6.466;2024-03-23T16:38:32;99743.97;;;5.99;100.00
63115;BME280;49208;50.874;6.466;2024-03-23T16:41:11;99754.69;;;5.91;100.00
63115;BME280;49208;50.874;6.466;2024-03-23T16:43:41;99755.69;;;5.87;100.00
63115;BME280;49208;50.874;6.466;2024-03-23T16:46:08;99753.22;;;5.81;100.00
63115;BME280;49208;50.874;6.466;2024-03-23T16:48:40;99748.97;;;5.75;100.00
63115;BME280;49208;50.874;6.466;2024-03-23T16:51:06;99746.56;;;5.66;100.00
63115;BME280;49208;50.874;6.466;2024-03-23T16:53:33;99754.66;;;5.60;100.00
63115;BME280;49208;50.874;6.466;2024-03-23T16:56:00;99748.81;;;5.49;100.00
63115;BME280;49208;50.874;6.466;2024-03-23T16:58:26;99750.75;;;5.42;100.00
63115;BME280;49208;50.874;6.466;2024-03-23T17:00:52;99746.53;;;5.33;100.00
63115;BME280;49208;50.874;6.466;2024-03-23T17:03:25;99733.59;;;5.24;100.00
63115;BME280;49208;50.874;6.466;2024-03-23T17:05:50;99741.78;;;5.13;100.00
63115;BME280;49208;50.874;6.466;2024-03-23T17:08:16;99737.59;;;5.04;100.00
63115;BME280;49208;50.874;6.466;2024-03-23T17:10:41;99731.69;;;4.95;100.00
63115;BME280;49208;50.874;6.466;2024-03-23T17:13:07;99726.56;;;4.87;100.00
63115;BME280;49208;50.874;6.466;2024-03-23T17:15:33;99732.00;;;4.81;100.00
63115;BME280;49208;50.874;6.466;2024-03-23T17:17:59;99722.50;;;4.74;100.00
63115;BME280;49208;50.874;6.466;2024-03-23T17:20:24;99732.28;;;4.69;100.00
63115;BME280;49208;50.874;6.466;2024-03-23T17:22:56;99726.19;;;4.66;100.00
63115;BME280;49208;50.874;6.466;2024-03-23T17:25:22;99728.91;;;4.63;100.00
63115;BME280;49208;50.874;6.466;2024-03-23T17:27:48;99720.16;;;4.61;100.00
63115;BME280;49208;50.874;6.466;2024-03-23T17:30:14;99718.47;;;4.59;100.00
63115;BME280;49208;50.874;6.466;2024-03-23T17:32:43;99721.16;;;4.56;100.00
63115;BME280;49208;50.874;6.466;2024-03-23T17:35:12;99720.34;;;4.52;100.00
63115;BME280;49208;50.874;6.466;2024-03-23T17:37:38;99713.38;;;4.50;100.00
63115;BME280;49208;50.874;6.466;2024-03-23T17:40:04;99718.75;;;4.47;100.00
63115;BME280;49208;50.874;6.466;2024-03-23T17:42:37;99718.75;;;4.47;100.00
63115;BME280;49208;50.874;6.466;2024-03-23T17:45:03;99721.38;;;4.47;100.00
63115;BME280;49208;50.874;6.466;2024-03-23T17:47:39;99730.13;;;4.49;100.00
63115;BME280;49208;50.874;6.466;2024-03-23T17:50:06;99728.34;;;4.49;100.00
63115;BME280;49208;50.874;6.466;2024-03-23T17:52:32;99725.69;;;4.51;100.00
63115;BME280;49208;50.874;6.466;2024-03-23T17:54:58;99733.53;;;4.52;100.00
63115;BME280;49208;50.874;6.466;2024-03-23T17:57:24;99747.50;;;4.56;100.00
63115;BME280;49208;50.874;6.466;2024-03-23T17:59:50;99774.69;;;4.59;100.00
63115;BME280;49208;50.874;6.466;2024-03-23T18:02:15;99775.47;;;4.63;100.00
63115;BME280;49208;50.874;6.466;2024-03-23T18:04:41;99772.09;;;4.56;100.00
63115;BME280;49208;50.874;6.466;2024-03-23T18:07:07;99793.38;;;4.47;100.00
63115;BME280;49208;50.874;6.466;2024-03-23T18:09:32;99780.38;;;4.39;100.00
63115;BME280;49208;50.874;6.466;2024-03-23T18:11:58;99774.63;;;4.19;100.00
63115;BME280;49208;50.874;6.466;2024-03-23T18:14:23;99776.66;;;4.06;100.00
63115;BME280;49208;50.874;6.466;2024-03-23T18:16:48;99771.50;;;4.00;100.00
63115;BME280;49208;50.874;6.466;2024-03-23T18:19:15;99762.84;;;3.95;100.00
63115;BME280;49208;50.874;6.466;2024-03-23T18:21:40;99766.53;;;3.86;100.00
63115;BME280;49208;50.874;6.466;2024-03-23T18:24:06;99751.84;;;3.73;100.00
63115;BME280;49208;50.874;6.466;2024-03-23T18:26:31;99762.50;;;3.67;100.00
63115;BME280;49208;50.874;6.466;2024-03-23T18:28:56;99764.34;;;3.61;100.00
63115;BME280;49208;50.874;6.466;2024-03-23T18:31:22;99761.78;;;3.57;100.00
63115;BME280;49208;50.874;6.466;2024-03-23T18:33:47;99769.75;;;3.52;100.00
63115;BME280;49208;50.874;6.466;2024-03-23T18:36:13;99768.97;;;3.49;100.00
63115;BME280;49208;50.874;6.466;2024-03-23T18:38:38;99769.00;;;3.46;100.00
63115;BME280;49208;50.874;6.466;2024-03-23T18:41:04;99753.22;;;3.46;100.00
63115;BME280;49208;50.874;6.466;2024-03-23T18:43:30;99751.44;;;3.46;100.00
63115;BME280;49208;50.874;6.466;2024-03-23T18:45:57;99750.63;;;3.44;100.00
63115;BME280;49208;50.874;6.466;2024-03-23T18:48:22;99744.50;;;3.43;100.00
63115;BME280;49208;50.874;6.466;2024-03-23T18:50:48;99736.69;;;3.39;100.00
63115;BME280;49208;50.874;6.466;2024-03-23T18:53:13;99733.22;;;3.35;100.00
63115;BME280;49208;50.874;6.466;2024-03-23T18:55:40;99723.69;;;3.30;100.00
63115;BME280;49208;50.874;6.466;2024-03-23T18:58:07;99718.50;;;3.25;100.00
63115;BME280;49208;50.874;6.466;2024-03-23T19:00:33;99722.09;;;3.21;100.00
63115;BME280;49208;50.874;6.466;2024-03-23T19:02:59;99715.94;;;3.22;100.00
63115;BME280;49208;50.874;6.466;2024-03-23T19:05:25;99723.84;;;3.22;100.00
63115;BME280;49208;50.874;6.466;2024-03-23T19:07:51;99729.97;;;3.22;100.00
63115;BME280;49208;50.874;6.466;2024-03-23T19:10:18;99731.63;;;3.27;100.00
63115;BME280;49208;50.874;6.466;2024-03-23T19:12:47;99732.47;;;3.30;100.00
63115;BME280;49208;50.874;6.466;2024-03-23T19:15:13;99721.00;;;3.34;100.00
63115;BME280;49208;50.874;6.466;2024-03-23T19:17:38;99716.53;;;3.38;100.00
63115;BME280;49208;50.874;6.466;2024-03-23T19:20:04;99717.41;;;3.38;100.00
63115;BME280;49208;50.874;6.466;2024-03-23T19:22:30;99722.69;;;3.38;100.00
63115;BME280;49208;50.874;6.466;2024-03-23T19:24:56;99729.63;;;3.41;100.00
63115;BME280;49208;50.874;6.466;2024-03-23T19:27:22;99713.78;;;3.44;100.00
63115;BME280;49208;50.874;6.466;2024-03-23T19:29:47;99716.38;;;3.47;100.00
63115;BME280;49208;50.874;6.466;2024-03-23T19:32:12;99717.22;;;3.49;100.00
63115;BME280;49208;50.874;6.466;2024-03-23T19:34:38;99721.56;;;3.50;100.00
63115;BME280;49208;50.874;6.466;2024-03-23T19:37:03;99721.47;;;3.55;100.00
63115;BME280;49208;50.874;6.466;2024-03-23T19:39:29;99712.63;;;3.59;100.00
63115;BME280;49208;50.874;6.466;2024-03-23T19:41:55;99714.34;;;3.61;100.00
63115;BME280;49208;50.874;6.466;2024-03-23T19:44:21;99709.00;;;3.66;100.00
63115;BME280;49208;50.874;6.466;2024-03-23T19:46:46;99708.03;;;3.70;100.00
63115;BME280;49208;50.874;6.466;2024-03-23T19:49:11;99710.56;;;3.75;100.00
63115;BME280;49208;50.874;6.466;2024-03-23T19:51:37;99702.66;;;3.76;100.00
63115;BME280;49208;50.874;6.466;2024-03-23T19:54:02;99692.88;;;3.81;100.00
63115;BME280;49208;50.874;6.466;2024-03-23T19:56:28;99697.19;;;3.85;100.00
63115;BME280;49208;50.874;6.466;2024-03-23T19:58:53;99700.63;;;3.89;100.00
63115;BME280;49208;50.874;6.466;2024-03-23T20:01:19;99708.50;;;3.92;100.00
63115;BME280;49208;50.874;6.466;2024-03-23T20:03:48;99704.00;;;3.96;100.00
63115;BME280;49208;50.874;6.466;2024-03-23T20:06:14;99709.25;;;3.97;100.00
63115;BME280;49208;50.874;6.466;2024-03-23T20:08:41;99704.78;;;4.01;100.00
63115;BME280;49208;50.874;6.466;2024-03-23T20:11:06;99700.31;;;4.04;100.00
63115;BME280;49208;50.874;6.466;2024-03-23T20:13:32;99687.94;;;4.08;100.00